sensor_id;sensor_type;location;lat;lon;timestamp;temperature;humidity
9446;DHT22;4761;49.490;10.908;2023-06-01T00:00:29;20.70;45.70
9446;DHT22;4761;49.490;10.908;2023-06-01T00:02:56;20.70;45.80
9446;DHT22;4761;49.490;10.908;2023-06-01T00:05:21;20.70;45.80
9446;DHT22;4761;49.490;10.908;2023-06-01T00:07:47;20.70;45.90
9446;DHT22;4761;49.490;10.908;2023-06-01T00:10:13;20.70;46.10
9446;DHT22;4761;49.490;10.908;2023-06-01T00:12:38;20.70;46.00
9446;DHT22;4761;49.490;10.908;2023-06-01T00:15:04;20.70;45.90
9446;DHT22;4761;49.490;10.908;2023-06-01T00:17:30;20.60;45.70
9446;DHT22;4761;49.490;10.908;2023-06-01T00:19:57;20.70;45.90
9446;DHT22;4761;49.490;10.908;2023-06-01T00:22:29;20.70;45.90
9446;DHT22;4761;49.490;10.908;2023-06-01T00:24:55;20.70;45.90
9446;DHT22;4761;49.490;10.908;2023-06-01T00:27:20;20.70;45.90
9446;DHT22;4761;49.490;10.908;2023-06-01T00:29:46;20.70;46.10
9446;DHT22;4761;49.490;10.908;2023-06-01T00:32:11;20.70;46.10
9446;DHT22;4761;49.490;10.908;2023-06-01T00:34:37;20.70;46.20
9446;DHT22;4761;49.490;10.908;2023-06-01T00:37:03;20.70;46.20
9446;DHT22;4761;49.490;10.908;2023-06-01T00:39:28;20.70;46.20
9446;DHT22;4761;49.490;10.908;2023-06-01T00:41:54;20.60;46.10
9446;DHT22;4761;49.490;10.908;2023-06-01T00:44:19;20.60;46.00
9446;DHT22;4761;49.490;10.908;2023-06-01T00:46:45;20.60;46.00
9446;DHT22;4761;49.490;10.908;2023-06-01T00:49:11;20.60;46.00
9446;DHT22;4761;49.490;10.908;2023-06-01T00:51:37;20.60;46.10
9446;DHT22;4761;49.490;10.908;2023-06-01T00:54:03;20.60;46.20
9446;DHT22;4761;49.490;10.908;2023-06-01T00:56:28;20.60;46.40
9446;DHT22;4761;49.490;10.908;2023-06-01T00:58:54;20.60;46.40
9446;DHT22;4761;49.490;10.908;2023-06-01T01:01:20;20.60;46.50
9446;DHT22;4761;49.490;10.908;2023-06-01T01:03:48;20.60;46.50
9446;DHT22;4761;49.490;10.908;2023-06-01T01:06:24;20.60;46.60
9446;DHT22;4761;49.490;10.908;2023-06-01T01:12:09;20.60;46.70
9446;DHT22;4761;49.490;10.908;2023-06-01T01:14:58;20.60;46.70
9446;DHT22;4761;49.490;10.908;2023-06-01T01:17:31;20.50;46.60
9446;DHT22;4761;49.490;10.908;2023-06-01T01:19:59;20.50;46.60
9446;DHT22;4761;49.490;10.908;2023-06-01T01:22:55;20.50;46.60
9446;DHT22;4761;49.490;10.908;2023-06-01T01:28:32;20.50;46.50
9446;DHT22;4761;49.490;10.908;2023-06-01T01:31:04;20.50;46.40
9446;DHT22;4761;49.490;10.908;2023-06-01T01:33:31;20.50;46.40
9446;DHT22;4761;49.490;10.908;2023-06-01T01:35:59;20.50;46.40
9446;DHT22;4761;49.490;10.908;2023-06-01T01:38:25;20.50;46.40
9446;DHT22;4761;49.490;10.908;2023-06-01T01:40:51;20.50;46.40
9446;DHT22;4761;49.490;10.908;2023-06-01T01:43:18;20.50;46.40
9446;DHT22;4761;49.490;10.908;2023-06-01T01:45:46;20.50;46.40
9446;DHT22;4761;49.490;10.908;2023-06-01T01:48:23;20.50;46.40
9446;DHT22;4761;49.490;10.908;2023-06-01T01:51:14;20.50;46.40
9446;DHT22;4761;49.490;10.908;2023-06-01T01:53:41;20.50;46.40
9446;DHT22;4761;49.490;10.908;2023-06-01T01:56:09;20.50;46.50
9446;DHT22;4761;49.490;10.908;2023-06-01T01:58:35;20.50;46.50
9446;DHT22;4761;49.490;10.908;2023-06-01T02:01:01;20.50;46.60
9446;DHT22;4761;49.490;10.908;2023-06-01T02:03:28;20.50;46.60
9446;DHT22;4761;49.490;10.908;2023-06-01T02:05:54;20.50;46.60
9446;DHT22;4761;49.490;10.908;2023-06-01T02:08:19;20.50;46.60
9446;DHT22;4761;49.490;10.908;2023-06-01T02:10:45;20.50;46.70
9446;DHT22;4761;49.490;10.908;2023-06-01T02:13:11;20.50;46.60
9446;DHT22;4761;49.490;10.908;2023-06-01T02:15:36;20.50;46.70
9446;DHT22;4761;49.490;10.908;2023-06-01T02:18:02;20.50;46.60
9446;DHT22;4761;49.490;10.908;2023-06-01T02:20:27;20.50;46.70
9446;DHT22;4761;49.490;10.908;2023-06-01T02:22:53;20.50;46.60
9446;DHT22;4761;49.490;10.908;2023-06-01T02:25:18;20.40;46.60
9446;DHT22;4761;49.490;10.908;2023-06-01T02:27:44;20.50;46.60
9446;DHT22;4761;49.490;10.908;2023-06-01T02:30:10;20.50;46.70
9446;DHT22;4761;49.490;10.908;2023-06-01T02:32:36;20.40;46.60
9446;DHT22;4761;49.490;10.908;2023-06-01T02:35:03;20.40;46.70
9446;DHT22;4761;49.490;10.908;2023-06-01T02:37:28;20.40;46.60
9446;DHT22;4761;49.490;10.908;2023-06-01T02:39:54;20.50;46.70
9446;DHT22;4761;49.490;10.908;2023-06-01T02:42:19;20.50;46.70
9446;DHT22;4761;49.490;10.908;2023-06-01T02:44:45;20.50;46.70
9446;DHT22;4761;49.490;10.908;2023-06-01T02:47:10;20.40;46.70
9446;DHT22;4761;49.490;10.908;2023-06-01T02:49:36;20.40;46.70
9446;DHT22;4761;49.490;10.908;2023-06-01T02:52:01;20.40;46.70
9446;DHT22;4761;49.490;10.908;2023-06-01T02:54:27;20.40;46.70
9446;DHT22;4761;49.490;10.908;2023-06-01T02:56:52;20.40;46.70
9446;DHT22;4761;49.490;10.908;2023-06-01T02:59:18;20.40;46.70
9446;DHT22;4761;49.490;10.908;2023-06-01T03:01:43;20.40;46.70
9446;DHT22;4761;49.490;10.908;2023-06-01T03:04:09;20.40;46.70
9446;DHT22;4761;49.490;10.908;2023-06-01T03:06:37;20.40;46.70
9446;DHT22;4761;49.490;10.908;2023-06-01T03:09:06;20.40;46.70
9446;DHT22;4761;49.490;10.908;2023-06-01T03:11:39;20.40;46.70
9446;DHT22;4761;49.490;10.908;2023-06-01T03:14:05;20.40;46.70
9446;DHT22;4761;49.490;10.908;2023-06-01T03:16:30;20.40;46.80
9446;DHT22;4761;49.490;10.908;2023-06-01T03:18:56;20.40;46.70
9446;DHT22;4761;49.490;10.908;2023-06-01T03:21:21;20.40;46.70
9446;DHT22;4761;49.490;10.908;2023-06-01T03:23:47;20.40;46.70
9446;DHT22;4761;49.490;10.908;2023-06-01T03:26:12;20.40;46.70
9446;DHT22;4761;49.490;10.908;2023-06-01T03:28:39;20.40;46.80
9446;DHT22;4761;49.490;10.908;2023-06-01T03:31:05;20.40;46.70
9446;DHT22;4761;49.490;10.908;2023-06-01T03:33:31;20.40;46.70
9446;DHT22;4761;49.490;10.908;2023-06-01T03:35:56;20.40;46.80
9446;DHT22;4761;49.490;10.908;2023-06-01T03:38:22;20.40;46.80
9446;DHT22;4761;49.490;10.908;2023-06-01T03:40:48;20.30;46.70
9446;DHT22;4761;49.490;10.908;2023-06-01T03:43:14;20.40;46.80
9446;DHT22;4761;49.490;10.908;2023-06-01T03:45:39;20.40;46.90
9446;DHT22;4761;49.490;10.908;2023-06-01T03:48:05;20.40;46.90
9446;DHT22;4761;49.490;10.908;2023-06-01T03:50:30;20.40;46.90
9446;DHT22;4761;49.490;10.908;2023-06-01T03:52:56;20.30;46.80
9446;DHT22;4761;49.490;10.908;2023-06-01T03:55:22;20.30;46.90
9446;DHT22;4761;49.490;10.908;2023-06-01T03:57:48;20.30;46.90
9446;DHT22;4761;49.490;10.908;2023-06-01T04:00:14;20.40;47.00
9446;DHT22;4761;49.490;10.908;2023-06-01T04:05:19;20.30;47.00
9446;DHT22;4761;49.490;10.908;2023-06-01T04:07:47;20.30;47.00
9446;DHT22;4761;49.490;10.908;2023-06-01T04:10:13;20.30;47.00
9446;DHT22;4761;49.490;10.908;2023-06-01T04:12:40;20.30;47.00
9446;DHT22;4761;49.490;10.908;2023-06-01T04:15:08;20.30;47.00
9446;DHT22;4761;49.490;10.908;2023-06-01T04:17:39;20.30;47.10
9446;DHT22;4761;49.490;10.908;2023-06-01T04:20:06;20.30;47.10
9446;DHT22;4761;49.490;10.908;2023-06-01T04:22:33;20.30;47.20
9446;DHT22;4761;49.490;10.908;2023-06-01T04:24:58;20.30;47.10
9446;DHT22;4761;49.490;10.908;2023-06-01T04:27:24;20.30;47.10
9446;DHT22;4761;49.490;10.908;2023-06-01T04:29:50;20.30;47.10
9446;DHT22;4761;49.490;10.908;2023-06-01T04:32:16;20.30;47.10
9446;DHT22;4761;49.490;10.908;2023-06-01T04:34:49;20.30;47.10
9446;DHT22;4761;49.490;10.908;2023-06-01T04:37:18;20.30;47.10
9446;DHT22;4761;49.490;10.908;2023-06-01T04:39:46;20.30;47.10
9446;DHT22;4761;49.490;10.908;2023-06-01T04:42:15;20.30;47.10
9446;DHT22;4761;49.490;10.908;2023-06-01T04:44:42;20.30;47.10
9446;DHT22;4761;49.490;10.908;2023-06-01T04:47:08;20.30;47.10
9446;DHT22;4761;49.490;10.908;2023-06-01T04:49:34;20.30;47.20
9446;DHT22;4761;49.490;10.908;2023-06-01T04:52:01;20.30;47.20
9446;DHT22;4761;49.490;10.908;2023-06-01T04:54:27;20.30;47.20
9446;DHT22;4761;49.490;10.908;2023-06-01T04:56:52;20.30;47.20
9446;DHT22;4761;49.490;10.908;2023-06-01T04:59:19;20.30;47.20
9446;DHT22;4761;49.490;10.908;2023-06-01T05:01:45;20.30;47.20
9446;DHT22;4761;49.490;10.908;2023-06-01T05:04:10;20.30;47.20
9446;DHT22;4761;49.490;10.908;2023-06-01T05:06:36;20.30;47.30
9446;DHT22;4761;49.490;10.908;2023-06-01T05:09:01;20.30;47.80
9446;DHT22;4761;49.490;10.908;2023-06-01T05:11:30;20.40;47.40
9446;DHT22;4761;49.490;10.908;2023-06-01T05:13:55;20.40;47.40
9446;DHT22;4761;49.490;10.908;2023-06-01T05:16:26;20.40;47.30
9446;DHT22;4761;49.490;10.908;2023-06-01T05:18:52;20.40;47.40
9446;DHT22;4761;49.490;10.908;2023-06-01T05:21:17;20.40;47.40
9446;DHT22;4761;49.490;10.908;2023-06-01T05:23:43;20.40;47.40
9446;DHT22;4761;49.490;10.908;2023-06-01T05:26:08;20.40;47.40
9446;DHT22;4761;49.490;10.908;2023-06-01T05:28:34;20.40;47.50
9446;DHT22;4761;49.490;10.908;2023-06-01T05:31:01;20.40;47.40
9446;DHT22;4761;49.490;10.908;2023-06-01T05:33:27;20.40;47.40
9446;DHT22;4761;49.490;10.908;2023-06-01T05:35:52;20.40;47.40
9446;DHT22;4761;49.490;10.908;2023-06-01T05:38:18;20.40;47.50
9446;DHT22;4761;49.490;10.908;2023-06-01T05:40:44;20.40;47.50
9446;DHT22;4761;49.490;10.908;2023-06-01T05:43:10;20.50;47.60
9446;DHT22;4761;49.490;10.908;2023-06-01T05:45:35;20.40;47.60
9446;DHT22;4761;49.490;10.908;2023-06-01T05:48:02;20.40;47.50
9446;DHT22;4761;49.490;10.908;2023-06-01T05:50:27;20.50;47.60
9446;DHT22;4761;49.490;10.908;2023-06-01T05:52:53;20.50;47.70
9446;DHT22;4761;49.490;10.908;2023-06-01T05:55:19;20.50;47.60
9446;DHT22;4761;49.490;10.908;2023-06-01T05:57:44;20.50;47.60
9446;DHT22;4761;49.490;10.908;2023-06-01T06:00:12;20.50;47.70
9446;DHT22;4761;49.490;10.908;2023-06-01T06:02:39;20.50;47.70
9446;DHT22;4761;49.490;10.908;2023-06-01T06:05:07;20.50;47.70
9446;DHT22;4761;49.490;10.908;2023-06-01T06:07:33;20.50;47.70
9446;DHT22;4761;49.490;10.908;2023-06-01T06:09:58;20.50;47.70
9446;DHT22;4761;49.490;10.908;2023-06-01T06:12:24;20.50;47.70
9446;DHT22;4761;49.490;10.908;2023-06-01T06:14:49;20.50;47.80
9446;DHT22;4761;49.490;10.908;2023-06-01T06:17:15;20.60;48.00
9446;DHT22;4761;49.490;10.908;2023-06-01T06:19:41;20.60;47.90
9446;DHT22;4761;49.490;10.908;2023-06-01T06:22:09;20.60;48.00
9446;DHT22;4761;49.490;10.908;2023-06-01T06:24:35;20.60;48.20
9446;DHT22;4761;49.490;10.908;2023-06-01T06:27:00;20.60;48.10
9446;DHT22;4761;49.490;10.908;2023-06-01T06:29:27;20.60;47.90
9446;DHT22;4761;49.490;10.908;2023-06-01T06:31:52;20.60;48.20
9446;DHT22;4761;49.490;10.908;2023-06-01T06:34:18;20.60;48.20
9446;DHT22;4761;49.490;10.908;2023-06-01T06:36:43;20.60;48.00
9446;DHT22;4761;49.490;10.908;2023-06-01T06:39:09;20.70;48.30
9446;DHT22;4761;49.490;10.908;2023-06-01T06:41:35;20.70;48.30
9446;DHT22;4761;49.490;10.908;2023-06-01T06:44:01;20.60;48.20
9446;DHT22;4761;49.490;10.908;2023-06-01T06:46:26;20.70;48.10
9446;DHT22;4761;49.490;10.908;2023-06-01T06:48:52;20.70;48.20
9446;DHT22;4761;49.490;10.908;2023-06-01T06:51:17;20.70;48.10
9446;DHT22;4761;49.490;10.908;2023-06-01T06:53:43;20.70;48.10
9446;DHT22;4761;49.490;10.908;2023-06-01T06:56:09;20.70;48.10
9446;DHT22;4761;49.490;10.908;2023-06-01T06:58:34;20.70;48.10
9446;DHT22;4761;49.490;10.908;2023-06-01T07:01:00;20.70;48.00
9446;DHT22;4761;49.490;10.908;2023-06-01T07:03:30;20.70;48.10
9446;DHT22;4761;49.490;10.908;2023-06-01T07:05:56;20.70;48.00
9446;DHT22;4761;49.490;10.908;2023-06-01T07:08:21;20.70;48.00
9446;DHT22;4761;49.490;10.908;2023-06-01T07:10:47;20.70;48.10
9446;DHT22;4761;49.490;10.908;2023-06-01T07:13:12;20.70;48.10
9446;DHT22;4761;49.490;10.908;2023-06-01T07:15:38;20.80;48.30
9446;DHT22;4761;49.490;10.908;2023-06-01T07:18:04;20.70;48.20
9446;DHT22;4761;49.490;10.908;2023-06-01T07:20:30;20.70;48.00
9446;DHT22;4761;49.490;10.908;2023-06-01T07:22:55;20.80;47.90
9446;DHT22;4761;49.490;10.908;2023-06-01T07:25:21;20.80;48.50
9446;DHT22;4761;49.490;10.908;2023-06-01T07:27:46;20.80;48.20
9446;DHT22;4761;49.490;10.908;2023-06-01T07:30:14;20.80;47.90
9446;DHT22;4761;49.490;10.908;2023-06-01T07:32:40;20.80;47.80
9446;DHT22;4761;49.490;10.908;2023-06-01T07:35:06;20.80;47.60
9446;DHT22;4761;49.490;10.908;2023-06-01T07:37:33;20.80;47.60
9446;DHT22;4761;49.490;10.908;2023-06-01T07:39:58;20.80;47.80
9446;DHT22;4761;49.490;10.908;2023-06-01T07:42:24;20.80;47.70
9446;DHT22;4761;49.490;10.908;2023-06-01T07:44:50;20.80;47.60
9446;DHT22;4761;49.490;10.908;2023-06-01T07:47:16;20.80;47.60
9446;DHT22;4761;49.490;10.908;2023-06-01T07:49:42;20.80;47.50
9446;DHT22;4761;49.490;10.908;2023-06-01T07:52:08;20.80;47.60
9446;DHT22;4761;49.490;10.908;2023-06-01T07:54:34;20.90;47.50
9446;DHT22;4761;49.490;10.908;2023-06-01T07:57:04;20.90;47.50
9446;DHT22;4761;49.490;10.908;2023-06-01T07:59:33;20.90;47.60
9446;DHT22;4761;49.490;10.908;2023-06-01T08:01:58;20.90;47.50
9446;DHT22;4761;49.490;10.908;2023-06-01T08:04:26;20.90;47.50
9446;DHT22;4761;49.490;10.908;2023-06-01T08:06:52;20.90;47.40
9446;DHT22;4761;49.490;10.908;2023-06-01T08:09:22;20.90;47.30
9446;DHT22;4761;49.490;10.908;2023-06-01T08:11:49;20.90;47.40
9446;DHT22;4761;49.490;10.908;2023-06-01T08:14:15;20.90;47.40
9446;DHT22;4761;49.490;10.908;2023-06-01T08:16:41;20.90;47.20
9446;DHT22;4761;49.490;10.908;2023-06-01T08:19:06;20.90;47.30
9446;DHT22;4761;49.490;10.908;2023-06-01T08:21:34;20.90;47.20
9446;DHT22;4761;49.490;10.908;2023-06-01T08:24:00;20.90;47.10
9446;DHT22;4761;49.490;10.908;2023-06-01T08:26:27;20.90;47.00
9446;DHT22;4761;49.490;10.908;2023-06-01T08:28:53;20.90;47.70
9446;DHT22;4761;49.490;10.908;2023-06-01T08:31:20;20.90;47.50
9446;DHT22;4761;49.490;10.908;2023-06-01T08:33:46;21.00;47.50
9446;DHT22;4761;49.490;10.908;2023-06-01T08:36:12;21.00;47.20
9446;DHT22;4761;49.490;10.908;2023-06-01T08:38:38;21.00;47.10
9446;DHT22;4761;49.490;10.908;2023-06-01T08:41:20;21.00;47.00
9446;DHT22;4761;49.490;10.908;2023-06-01T08:43:58;21.00;46.90
9446;DHT22;4761;49.490;10.908;2023-06-01T08:46:25;21.00;46.90
9446;DHT22;4761;49.490;10.908;2023-06-01T08:48:54;21.00;46.80
9446;DHT22;4761;49.490;10.908;2023-06-01T08:51:23;21.00;46.80
9446;DHT22;4761;49.490;10.908;2023-06-01T08:53:49;21.00;46.80
9446;DHT22;4761;49.490;10.908;2023-06-01T08:56:15;21.00;47.50
9446;DHT22;4761;49.490;10.908;2023-06-01T08:58:41;21.00;46.90
9446;DHT22;4761;49.490;10.908;2023-06-01T09:01:09;21.00;46.80
9446;DHT22;4761;49.490;10.908;2023-06-01T09:03:35;21.10;46.80
9446;DHT22;4761;49.490;10.908;2023-06-01T09:06:00;21.10;46.80
9446;DHT22;4761;49.490;10.908;2023-06-01T09:08:26;21.10;46.70
9446;DHT22;4761;49.490;10.908;2023-06-01T09:10:51;21.10;46.70
9446;DHT22;4761;49.490;10.908;2023-06-01T09:13:39;21.10;46.70
9446;DHT22;4761;49.490;10.908;2023-06-01T09:16:06;21.10;46.60
9446;DHT22;4761;49.490;10.908;2023-06-01T09:18:32;21.10;46.60
9446;DHT22;4761;49.490;10.908;2023-06-01T09:21:14;21.10;46.60
9446;DHT22;4761;49.490;10.908;2023-06-01T09:23:40;21.10;46.50
9446;DHT22;4761;49.490;10.908;2023-06-01T09:28:57;21.10;46.60
9446;DHT22;4761;49.490;10.908;2023-06-01T09:31:42;21.10;46.60
9446;DHT22;4761;49.490;10.908;2023-06-01T09:34:14;21.10;46.50
9446;DHT22;4761;49.490;10.908;2023-06-01T09:36:50;21.10;46.50
9446;DHT22;4761;49.490;10.908;2023-06-01T09:39:18;21.10;46.50
9446;DHT22;4761;49.490;10.908;2023-06-01T09:44:11;21.10;46.60
9446;DHT22;4761;49.490;10.908;2023-06-01T09:46:47;21.20;46.70
9446;DHT22;4761;49.490;10.908;2023-06-01T09:49:27;21.10;46.50
9446;DHT22;4761;49.490;10.908;2023-06-01T09:54:36;21.20;46.50
9446;DHT22;4761;49.490;10.908;2023-06-01T09:57:03;21.20;46.50
9446;DHT22;4761;49.490;10.908;2023-06-01T09:59:30;21.20;46.50
9446;DHT22;4761;49.490;10.908;2023-06-01T10:02:03;21.20;46.40
9446;DHT22;4761;49.490;10.908;2023-06-01T10:04:29;21.20;46.40
9446;DHT22;4761;49.490;10.908;2023-06-01T10:06:56;21.20;46.40
9446;DHT22;4761;49.490;10.908;2023-06-01T10:09:23;21.20;46.40
9446;DHT22;4761;49.490;10.908;2023-06-01T10:11:53;21.20;46.40
9446;DHT22;4761;49.490;10.908;2023-06-01T10:14:21;21.20;46.40
9446;DHT22;4761;49.490;10.908;2023-06-01T10:16:49;21.20;46.40
9446;DHT22;4761;49.490;10.908;2023-06-01T10:19:16;21.20;46.50
9446;DHT22;4761;49.490;10.908;2023-06-01T10:21:43;21.20;46.50
9446;DHT22;4761;49.490;10.908;2023-06-01T10:24:11;21.20;46.50
9446;DHT22;4761;49.490;10.908;2023-06-01T10:26:50;21.20;46.50
9446;DHT22;4761;49.490;10.908;2023-06-01T10:29:18;21.20;46.50
9446;DHT22;4761;49.490;10.908;2023-06-01T10:31:44;21.20;46.50
9446;DHT22;4761;49.490;10.908;2023-06-01T10:34:11;21.20;46.50
9446;DHT22;4761;49.490;10.908;2023-06-01T10:39:31;21.20;46.60
9446;DHT22;4761;49.490;10.908;2023-06-01T10:55:19;21.20;46.60
9446;DHT22;4761;49.490;10.908;2023-06-01T10:57:45;21.20;46.60
9446;DHT22;4761;49.490;10.908;2023-06-01T11:00:21;21.20;46.70
9446;DHT22;4761;49.490;10.908;2023-06-01T11:03:05;21.20;46.70
9446;DHT22;4761;49.490;10.908;2023-06-01T11:05:39;21.20;46.70
9446;DHT22;4761;49.490;10.908;2023-06-01T11:08:07;21.20;46.70
9446;DHT22;4761;49.490;10.908;2023-06-01T11:13:35;21.20;46.70
9446;DHT22;4761;49.490;10.908;2023-06-01T11:18:54;21.20;46.80
9446;DHT22;4761;49.490;10.908;2023-06-01T11:21:31;21.30;46.90
9446;DHT22;4761;49.490;10.908;2023-06-01T11:23:59;21.30;46.90
9446;DHT22;4761;49.490;10.908;2023-06-01T11:26:30;21.20;46.80
9446;DHT22;4761;49.490;10.908;2023-06-01T11:31:35;21.30;46.90
9446;DHT22;4761;49.490;10.908;2023-06-01T11:34:01;21.30;46.90
9446;DHT22;4761;49.490;10.908;2023-06-01T11:36:27;21.20;46.80
9446;DHT22;4761;49.490;10.908;2023-06-01T11:38:55;21.30;46.90
9446;DHT22;4761;49.490;10.908;2023-06-01T11:41:21;21.30;47.00
9446;DHT22;4761;49.490;10.908;2023-06-01T11:43:55;21.30;46.90
9446;DHT22;4761;49.490;10.908;2023-06-01T11:46:22;21.30;46.90
9446;DHT22;4761;49.490;10.908;2023-06-01T11:49:02;21.30;47.00
9446;DHT22;4761;49.490;10.908;2023-06-01T11:51:32;21.30;47.00
9446;DHT22;4761;49.490;10.908;2023-06-01T11:54:00;21.30;47.00
9446;DHT22;4761;49.490;10.908;2023-06-01T11:56:33;21.30;47.00
9446;DHT22;4761;49.490;10.908;2023-06-01T11:59:00;21.30;47.00
9446;DHT22;4761;49.490;10.908;2023-06-01T12:01:27;21.30;47.70
9446;DHT22;4761;49.490;10.908;2023-06-01T12:03:53;21.30;47.10
9446;DHT22;4761;49.490;10.908;2023-06-01T12:06:24;21.30;47.10
9446;DHT22;4761;49.490;10.908;2023-06-01T12:08:54;21.30;47.10
9446;DHT22;4761;49.490;10.908;2023-06-01T12:11:23;21.30;47.10
9446;DHT22;4761;49.490;10.908;2023-06-01T12:13:53;21.30;47.10
9446;DHT22;4761;49.490;10.908;2023-06-01T12:16:18;21.30;47.00
9446;DHT22;4761;49.490;10.908;2023-06-01T12:18:44;21.30;47.60
9446;DHT22;4761;49.490;10.908;2023-06-01T12:21:14;21.30;47.00
9446;DHT22;4761;49.490;10.908;2023-06-01T12:23:40;21.30;47.00
9446;DHT22;4761;49.490;10.908;2023-06-01T12:26:07;21.30;47.00
9446;DHT22;4761;49.490;10.908;2023-06-01T12:28:53;21.30;47.00
9446;DHT22;4761;49.490;10.908;2023-06-01T12:31:20;21.30;47.10
9446;DHT22;4761;49.490;10.908;2023-06-01T12:33:47;21.30;47.10
9446;DHT22;4761;49.490;10.908;2023-06-01T12:36:33;21.30;47.20
9446;DHT22;4761;49.490;10.908;2023-06-01T12:39:03;21.30;47.20
9446;DHT22;4761;49.490;10.908;2023-06-01T12:41:30;21.30;47.20
9446;DHT22;4761;49.490;10.908;2023-06-01T12:43:57;21.30;47.70
9446;DHT22;4761;49.490;10.908;2023-06-01T12:46:26;21.40;47.20
9446;DHT22;4761;49.490;10.908;2023-06-01T12:48:54;21.30;47.10
9446;DHT22;4761;49.490;10.908;2023-06-01T12:51:21;21.40;47.10
9446;DHT22;4761;49.490;10.908;2023-06-01T12:53:47;21.40;47.20
9446;DHT22;4761;49.490;10.908;2023-06-01T12:56:13;21.40;47.20
9446;DHT22;4761;49.490;10.908;2023-06-01T12:58:39;21.40;47.20
9446;DHT22;4761;49.490;10.908;2023-06-01T13:01:05;21.40;47.20
9446;DHT22;4761;49.490;10.908;2023-06-01T13:03:31;21.40;47.30
9446;DHT22;4761;49.490;10.908;2023-06-01T13:05:58;21.40;47.30
9446;DHT22;4761;49.490;10.908;2023-06-01T13:08:23;21.40;47.20
9446;DHT22;4761;49.490;10.908;2023-06-01T13:10:49;21.40;47.30
9446;DHT22;4761;49.490;10.908;2023-06-01T13:13:15;21.40;47.30
9446;DHT22;4761;49.490;10.908;2023-06-01T13:15:42;21.40;48.00
9446;DHT22;4761;49.490;10.908;2023-06-01T13:18:08;21.40;47.40
9446;DHT22;4761;49.490;10.908;2023-06-01T13:20:35;21.40;47.30
9446;DHT22;4761;49.490;10.908;2023-06-01T13:23:01;21.40;47.40
9446;DHT22;4761;49.490;10.908;2023-06-01T13:25:27;21.40;47.40
9446;DHT22;4761;49.490;10.908;2023-06-01T13:27:52;21.40;47.50
9446;DHT22;4761;49.490;10.908;2023-06-01T13:30:18;21.40;47.50
9446;DHT22;4761;49.490;10.908;2023-06-01T13:32:44;21.40;47.40
9446;DHT22;4761;49.490;10.908;2023-06-01T13:35:10;21.40;47.50
9446;DHT22;4761;49.490;10.908;2023-06-01T13:37:37;21.40;48.10
9446;DHT22;4761;49.490;10.908;2023-06-01T13:40:03;21.40;47.50
9446;DHT22;4761;49.490;10.908;2023-06-01T13:42:30;21.40;47.50
9446;DHT22;4761;49.490;10.908;2023-06-01T13:44:56;21.40;47.60
9446;DHT22;4761;49.490;10.908;2023-06-01T13:47:22;21.40;47.60
9446;DHT22;4761;49.490;10.908;2023-06-01T13:49:47;21.50;47.70
9446;DHT22;4761;49.490;10.908;2023-06-01T13:52:13;21.50;47.70
9446;DHT22;4761;49.490;10.908;2023-06-01T13:54:39;21.40;47.70
9446;DHT22;4761;49.490;10.908;2023-06-01T13:57:04;21.40;47.70
9446;DHT22;4761;49.490;10.908;2023-06-01T13:59:31;21.50;47.80
9446;DHT22;4761;49.490;10.908;2023-06-01T14:01:57;21.40;47.70
9446;DHT22;4761;49.490;10.908;2023-06-01T14:04:23;21.40;47.80
9446;DHT22;4761;49.490;10.908;2023-06-01T14:06:48;21.40;47.80
9446;DHT22;4761;49.490;10.908;2023-06-01T14:09:17;21.50;47.80
9446;DHT22;4761;49.490;10.908;2023-06-01T14:11:43;21.50;47.90
9446;DHT22;4761;49.490;10.908;2023-06-01T14:14:08;21.40;47.80
9446;DHT22;4761;49.490;10.908;2023-06-01T14:16:34;21.40;47.80
9446;DHT22;4761;49.490;10.908;2023-06-01T14:19:00;21.40;47.80
9446;DHT22;4761;49.490;10.908;2023-06-01T14:21:25;21.50;48.50
9446;DHT22;4761;49.490;10.908;2023-06-01T14:23:51;21.40;47.80
9446;DHT22;4761;49.490;10.908;2023-06-01T14:26:17;21.50;47.90
9446;DHT22;4761;49.490;10.908;2023-06-01T14:28:42;21.40;47.80
9446;DHT22;4761;49.490;10.908;2023-06-01T14:31:08;21.40;47.90
9446;DHT22;4761;49.490;10.908;2023-06-01T14:33:33;21.40;47.90
9446;DHT22;4761;49.490;10.908;2023-06-01T14:35:59;21.40;47.90
9446;DHT22;4761;49.490;10.908;2023-06-01T14:38:25;21.50;48.00
9446;DHT22;4761;49.490;10.908;2023-06-01T14:40:50;21.40;47.90
9446;DHT22;4761;49.490;10.908;2023-06-01T14:43:16;21.40;47.90
9446;DHT22;4761;49.490;10.908;2023-06-01T14:45:41;21.50;48.00
9446;DHT22;4761;49.490;10.908;2023-06-01T14:48:07;21.50;48.00
9446;DHT22;4761;49.490;10.908;2023-06-01T14:50:32;21.50;48.00
9446;DHT22;4761;49.490;10.908;2023-06-01T14:52:58;21.50;48.10
9446;DHT22;4761;49.490;10.908;2023-06-01T14:55:27;21.40;48.00
9446;DHT22;4761;49.490;10.908;2023-06-01T14:57:53;21.50;48.00
9446;DHT22;4761;49.490;10.908;2023-06-01T15:00:19;21.50;48.10
9446;DHT22;4761;49.490;10.908;2023-06-01T15:02:45;21.50;48.10
9446;DHT22;4761;49.490;10.908;2023-06-01T15:05:13;21.50;48.10
9446;DHT22;4761;49.490;10.908;2023-06-01T15:07:39;21.50;48.10
9446;DHT22;4761;49.490;10.908;2023-06-01T15:10:05;21.50;48.20
9446;DHT22;4761;49.490;10.908;2023-06-01T15:12:31;21.40;48.10
9446;DHT22;4761;49.490;10.908;2023-06-01T15:14:56;21.40;48.10
9446;DHT22;4761;49.490;10.908;2023-06-01T15:17:22;21.40;48.10
9446;DHT22;4761;49.490;10.908;2023-06-01T15:19:48;21.40;48.10
9446;DHT22;4761;49.490;10.908;2023-06-01T15:22:14;21.40;48.10
9446;DHT22;4761;49.490;10.908;2023-06-01T15:24:40;21.40;48.10
9446;DHT22;4761;49.490;10.908;2023-06-01T15:27:08;21.40;48.10
9446;DHT22;4761;49.490;10.908;2023-06-01T15:29:34;21.40;48.20
9446;DHT22;4761;49.490;10.908;2023-06-01T15:32:01;21.40;48.10
9446;DHT22;4761;49.490;10.908;2023-06-01T15:34:26;21.40;48.20
9446;DHT22;4761;49.490;10.908;2023-06-01T15:36:52;21.40;48.20
9446;DHT22;4761;49.490;10.908;2023-06-01T15:39:17;21.40;48.20
9446;DHT22;4761;49.490;10.908;2023-06-01T15:41:43;21.40;48.20
9446;DHT22;4761;49.490;10.908;2023-06-01T15:44:09;21.40;48.20
9446;DHT22;4761;49.490;10.908;2023-06-01T15:46:34;21.40;48.30
9446;DHT22;4761;49.490;10.908;2023-06-01T15:49:00;21.40;48.30
9446;DHT22;4761;49.490;10.908;2023-06-01T15:51:26;21.40;48.30
9446;DHT22;4761;49.490;10.908;2023-06-01T15:53:51;21.40;48.30
9446;DHT22;4761;49.490;10.908;2023-06-01T15:56:17;21.40;48.30
9446;DHT22;4761;49.490;10.908;2023-06-01T15:58:43;21.40;48.30
9446;DHT22;4761;49.490;10.908;2023-06-01T16:01:09;21.40;48.30
9446;DHT22;4761;49.490;10.908;2023-06-01T16:03:34;21.40;48.30
9446;DHT22;4761;49.490;10.908;2023-06-01T16:06:00;21.40;48.30
9446;DHT22;4761;49.490;10.908;2023-06-01T16:08:26;21.40;48.30
9446;DHT22;4761;49.490;10.908;2023-06-01T16:10:52;21.40;48.30
9446;DHT22;4761;49.490;10.908;2023-06-01T16:13:17;21.40;48.30
9446;DHT22;4761;49.490;10.908;2023-06-01T16:15:43;21.40;48.30
9446;DHT22;4761;49.490;10.908;2023-06-01T16:18:09;21.40;48.30
9446;DHT22;4761;49.490;10.908;2023-06-01T16:20:35;21.40;48.30
9446;DHT22;4761;49.490;10.908;2023-06-01T16:23:01;21.40;48.40
9446;DHT22;4761;49.490;10.908;2023-06-01T16:25:26;21.40;48.30